createdAt,value
2022-07-27T00:00:46.939Z,1014.54
2022-07-27T00:01:50.601Z,1014.50
2022-07-27T00:02:51.370Z,1014.51
2022-07-27T00:03:46.950Z,1014.51
2022-07-27T00:04:46.902Z,1014.54
2022-07-27T00:05:46.873Z,1014.53
2022-07-27T00:06:46.865Z,1014.51
2022-07-27T00:07:46.854Z,1014.51
2022-07-27T00:08:46.880Z,1014.52
2022-07-27T00:09:46.876Z,1014.50
2022-07-27T00:10:46.868Z,1014.45
2022-07-27T00:11:46.861Z,1014.44
2022-07-27T00:12:46.861Z,1014.47
2022-07-27T00:13:46.861Z,1014.50
2022-07-27T00:14:46.869Z,1014.45
2022-07-27T00:15:46.876Z,1014.47
2022-07-27T00:16:47.005Z,1014.50
2022-07-27T00:17:46.878Z,1014.46
2022-07-27T00:18:46.873Z,1014.49
2022-07-27T00:19:46.889Z,1014.51
2022-07-27T00:20:46.875Z,1014.51
2022-07-27T00:21:46.876Z,1014.48
2022-07-27T00:22:46.883Z,1014.45
2022-07-27T00:23:46.885Z,1014.49
2022-07-27T00:24:46.880Z,1014.47
2022-07-27T00:25:46.887Z,1014.49
2022-07-27T00:26:46.884Z,1014.49
2022-07-27T00:27:46.887Z,1014.47
2022-07-27T00:28:46.905Z,1014.50
2022-07-27T00:29:46.890Z,1014.47
2022-07-27T00:30:46.885Z,1014.50
2022-07-27T00:31:46.923Z,1014.55
2022-07-27T00:32:46.896Z,1014.49
2022-07-27T00:33:46.899Z,1014.57
2022-07-27T00:34:46.904Z,1014.51
2022-07-27T00:35:46.901Z,1014.56
2022-07-27T00:36:46.892Z,1014.58
2022-07-27T00:37:46.908Z,1014.55
2022-07-27T00:38:46.900Z,1014.58
2022-07-27T00:39:46.898Z,1014.54
2022-07-27T00:40:46.907Z,1014.55
2022-07-27T00:41:46.912Z,1014.55
2022-07-27T00:42:46.919Z,1014.53
2022-07-27T00:43:46.906Z,1014.55
2022-07-27T00:44:46.916Z,1014.54
2022-07-27T00:45:46.903Z,1014.58
2022-07-27T00:46:46.971Z,1014.59
2022-07-27T00:47:49.540Z,1014.57
2022-07-27T00:48:46.959Z,1014.57
2022-07-27T00:49:46.910Z,1014.58
2022-07-27T00:50:46.919Z,1014.55
2022-07-27T00:51:46.928Z,1014.59
2022-07-27T00:52:46.924Z,1014.57
2022-07-27T00:53:46.916Z,1014.60
2022-07-27T00:54:46.930Z,1014.57
2022-07-27T00:55:46.934Z,1014.56
2022-07-27T00:56:46.926Z,1014.56
2022-07-27T00:57:53.195Z,1014.53
2022-07-27T00:58:46.931Z,1014.53
2022-07-27T00:59:46.922Z,1014.54
2022-07-27T01:00:46.937Z,1014.55
2022-07-27T01:01:47.113Z,1014.53
2022-07-27T01:02:47.318Z,1014.56
2022-07-27T01:03:48.041Z,1014.55
2022-07-27T01:04:47.394Z,1014.58
2022-07-27T01:05:46.943Z,1014.61
2022-07-27T01:06:46.939Z,1014.57
2022-07-27T01:07:46.938Z,1014.58
2022-07-27T01:08:46.938Z,1014.53
2022-07-27T01:09:46.947Z,1014.58
2022-07-27T01:10:46.954Z,1014.57
2022-07-27T01:11:46.938Z,1014.56
2022-07-27T01:12:46.939Z,1014.58
2022-07-27T01:13:46.946Z,1014.55
2022-07-27T01:14:46.953Z,1014.54
2022-07-27T01:15:47.034Z,1014.52
2022-07-27T01:16:46.953Z,1014.52
2022-07-27T01:17:46.957Z,1014.49
2022-07-27T01:18:46.957Z,1014.52
2022-07-27T01:19:46.962Z,1014.50
2022-07-27T01:20:46.960Z,1014.54
2022-07-27T01:21:46.965Z,1014.48
2022-07-27T01:22:46.955Z,1014.48
2022-07-27T01:23:46.970Z,1014.51
2022-07-27T01:24:46.959Z,1014.50
2022-07-27T01:25:46.971Z,1014.52
2022-07-27T01:26:46.970Z,1014.52
2022-07-27T01:27:46.968Z,1014.50
2022-07-27T01:28:46.962Z,1014.50
2022-07-27T01:29:46.964Z,1014.52
2022-07-27T01:30:47.103Z,1014.50
2022-07-27T01:31:47.021Z,1014.47
2022-07-27T01:32:46.979Z,1014.49
2022-07-27T01:33:46.978Z,1014.47
2022-07-27T01:34:46.982Z,1014.47
2022-07-27T01:35:46.974Z,1014.48
2022-07-27T01:36:46.971Z,1014.48
2022-07-27T01:37:48.224Z,1014.46
2022-07-27T01:38:46.984Z,1014.46
2022-07-27T01:39:46.979Z,1014.44
2022-07-27T01:40:46.978Z,1014.42
2022-07-27T01:41:46.994Z,1014.43
2022-07-27T01:42:46.985Z,1014.44
2022-07-27T01:43:46.993Z,1014.45
2022-07-27T01:44:46.981Z,1014.44
2022-07-27T01:45:46.989Z,1014.47
2022-07-27T01:46:47.058Z,1014.45
2022-07-27T01:47:46.987Z,1014.48
2022-07-27T01:48:47.038Z,1014.46
2022-07-27T01:49:46.987Z,1014.47
2022-07-27T01:50:47.807Z,1014.46
2022-07-27T01:51:46.997Z,1014.43
2022-07-27T01:52:47.008Z,1014.44
2022-07-27T01:53:47.001Z,1014.44
2022-07-27T01:54:46.996Z,1014.38
2022-07-27T01:55:47.003Z,1014.39
2022-07-27T01:56:46.998Z,1014.43
2022-07-27T01:57:47.012Z,1014.41
2022-07-27T01:58:47.003Z,1014.49
2022-07-27T01:59:47.140Z,1014.47
2022-07-27T02:00:47.039Z,1014.45
2022-07-27T02:01:47.171Z,1014.48
2022-07-27T02:02:47.008Z,1014.51
2022-07-27T02:03:47.004Z,1014.55
2022-07-27T02:04:47.061Z,1014.55
2022-07-27T02:05:47.050Z,1014.56
2022-07-27T02:06:47.019Z,1014.55
2022-07-27T02:07:47.015Z,1014.56
2022-07-27T02:08:47.022Z,1014.59
2022-07-27T02:09:47.027Z,1014.56
2022-07-27T02:10:47.014Z,1014.52
2022-07-27T02:11:47.033Z,1014.51
2022-07-27T02:12:47.013Z,1014.47
2022-07-27T02:13:47.025Z,1014.48
2022-07-27T02:14:47.030Z,1014.51
2022-07-27T02:15:47.068Z,1014.46
2022-07-27T02:16:47.030Z,1014.47
2022-07-27T02:17:47.033Z,1014.52
2022-07-27T02:18:48.766Z,1014.51
2022-07-27T02:19:47.028Z,1014.47
2022-07-27T02:20:47.030Z,1014.46
2022-07-27T02:21:47.036Z,1014.48
2022-07-27T02:22:47.038Z,1014.52
2022-07-27T02:23:47.031Z,1014.49
2022-07-27T02:24:47.037Z,1014.52
2022-07-27T02:25:47.041Z,1014.50
2022-07-27T02:26:47.045Z,1014.51
2022-07-27T02:27:47.042Z,1014.51
2022-07-27T02:28:47.042Z,1014.51
2022-07-27T02:29:47.032Z,1014.48
2022-07-27T02:30:47.047Z,1014.51
2022-07-27T02:31:47.044Z,1014.51
2022-07-27T02:32:47.079Z,1014.53
2022-07-27T02:33:47.051Z,1014.52
2022-07-27T02:34:47.043Z,1014.51
2022-07-27T02:35:47.043Z,1014.51
2022-07-27T02:36:47.046Z,1014.54
2022-07-27T02:37:47.053Z,1014.50
2022-07-27T02:38:47.057Z,1014.51
2022-07-27T02:39:47.050Z,1014.52
2022-07-27T02:40:47.051Z,1014.52
2022-07-27T02:41:47.057Z,1014.50
2022-07-27T02:42:47.074Z,1014.52
2022-07-27T02:43:47.059Z,1014.52
2022-07-27T02:44:47.067Z,1014.53
2022-07-27T02:45:47.166Z,1014.50
2022-07-27T02:46:47.119Z,1014.46
2022-07-27T02:47:47.060Z,1014.48
2022-07-27T02:48:47.180Z,1014.49
2022-07-27T02:49:47.071Z,1014.48
2022-07-27T02:50:47.065Z,1014.48
2022-07-27T02:51:47.059Z,1014.55
2022-07-27T02:52:47.070Z,1014.55
2022-07-27T02:53:47.077Z,1014.55
2022-07-27T02:54:47.081Z,1014.59
2022-07-27T02:55:47.069Z,1014.63
2022-07-27T02:56:47.077Z,1014.65
2022-07-27T02:57:47.072Z,1014.69
2022-07-27T02:58:47.078Z,1014.68
2022-07-27T02:59:47.077Z,1014.69
2022-07-27T03:00:47.076Z,1014.68
2022-07-27T03:01:47.131Z,1014.62
2022-07-27T03:02:47.090Z,1014.66
2022-07-27T03:03:47.078Z,1014.67
2022-07-27T03:04:47.150Z,1014.63
2022-07-27T03:05:47.088Z,1014.67
2022-07-27T03:06:47.087Z,1014.69
2022-07-27T03:07:47.084Z,1014.67
2022-07-27T03:08:47.101Z,1014.67
2022-07-27T03:09:52.089Z,1014.69
2022-07-27T03:10:48.637Z,1014.70
2022-07-27T03:11:47.095Z,1014.66
2022-07-27T03:12:47.109Z,1014.68
2022-07-27T03:13:47.090Z,1014.69
2022-07-27T03:14:47.138Z,1014.66
2022-07-27T03:15:47.141Z,1014.72
2022-07-27T03:16:47.098Z,1014.70
2022-07-27T03:17:47.341Z,1014.69
2022-07-27T03:18:49.619Z,1014.70
2022-07-27T03:19:47.097Z,1014.71
2022-07-27T03:20:47.106Z,1014.69
2022-07-27T03:21:47.108Z,1014.72
2022-07-27T03:22:47.098Z,1014.75
2022-07-27T03:23:47.123Z,1014.73
2022-07-27T03:24:47.103Z,1014.72
2022-07-27T03:25:47.104Z,1014.70
2022-07-27T03:26:47.116Z,1014.70
2022-07-27T03:27:47.110Z,1014.61
2022-07-27T03:28:47.114Z,1014.64
2022-07-27T03:29:47.107Z,1014.62
2022-07-27T03:30:47.223Z,1014.63
2022-07-27T03:31:47.132Z,1014.67
2022-07-27T03:32:47.113Z,1014.62
2022-07-27T03:33:47.116Z,1014.61
2022-07-27T03:34:47.114Z,1014.67
2022-07-27T03:35:47.124Z,1014.63
2022-07-27T03:36:47.126Z,1014.69
2022-07-27T03:37:47.116Z,1014.65
2022-07-27T03:38:47.141Z,1014.72
2022-07-27T03:39:47.131Z,1014.67
2022-07-27T03:40:47.117Z,1014.69
2022-07-27T03:41:47.123Z,1014.70
2022-07-27T03:42:47.120Z,1014.71
2022-07-27T03:43:47.130Z,1014.70
2022-07-27T03:44:47.136Z,1014.70
2022-07-27T03:45:47.151Z,1014.75
2022-07-27T03:46:47.141Z,1014.70
2022-07-27T03:47:47.141Z,1014.72
2022-07-27T03:48:47.178Z,1014.72
2022-07-27T03:49:47.153Z,1014.74
2022-07-27T03:50:47.145Z,1014.74
2022-07-27T03:51:47.140Z,1014.74
2022-07-27T03:52:47.133Z,1014.72
2022-07-27T03:53:47.135Z,1014.76
2022-07-27T03:54:47.144Z,1014.77
2022-07-27T03:55:47.155Z,1014.74
2022-07-27T03:56:47.147Z,1014.74
2022-07-27T03:57:47.143Z,1014.77
2022-07-27T03:58:47.151Z,1014.80
2022-07-27T03:59:47.140Z,1014.79
2022-07-27T04:00:47.283Z,1014.76
2022-07-27T04:01:47.354Z,1014.81
2022-07-27T04:02:47.241Z,1014.79
2022-07-27T04:03:47.152Z,1014.77
2022-07-27T04:04:47.160Z,1014.85
2022-07-27T04:05:47.157Z,1014.81
2022-07-27T04:06:47.151Z,1014.84
2022-07-27T04:07:47.149Z,1014.84
2022-07-27T04:08:47.159Z,1014.84
2022-07-27T04:09:47.270Z,1014.86
2022-07-27T04:10:47.158Z,1014.85
2022-07-27T04:11:51.020Z,1014.85
2022-07-27T04:12:47.169Z,1014.87
2022-07-27T04:13:47.415Z,1014.85
2022-07-27T04:14:47.158Z,1014.90
2022-07-27T04:15:47.169Z,1014.90
2022-07-27T04:16:47.320Z,1014.91
2022-07-27T04:17:55.778Z,1014.87
2022-07-27T04:18:47.161Z,1014.89
2022-07-27T04:19:47.166Z,1014.89
2022-07-27T04:20:47.171Z,1014.90
2022-07-27T04:21:47.181Z,1014.91
2022-07-27T04:22:47.176Z,1014.93
2022-07-27T04:23:47.179Z,1014.90
2022-07-27T04:24:47.166Z,1014.90
2022-07-27T04:25:47.182Z,1014.91
2022-07-27T04:26:47.172Z,1014.92
2022-07-27T04:27:47.173Z,1014.93
2022-07-27T04:28:47.189Z,1014.88
2022-07-27T04:29:47.186Z,1014.87
2022-07-27T04:30:47.255Z,1014.88
2022-07-27T04:31:47.178Z,1014.92
2022-07-27T04:32:47.182Z,1014.85
2022-07-27T04:33:47.183Z,1014.84
2022-07-27T04:34:47.178Z,1014.87
2022-07-27T04:35:47.180Z,1014.84
2022-07-27T04:36:47.180Z,1014.84
2022-07-27T04:37:59.231Z,1014.81
2022-07-27T04:38:47.190Z,1014.84
2022-07-27T04:39:47.191Z,1014.84
2022-07-27T04:40:47.182Z,1014.85
2022-07-27T04:41:47.192Z,1014.89
2022-07-27T04:42:51.225Z,1014.86
2022-07-27T04:43:47.195Z,1014.89
2022-07-27T04:44:47.192Z,1014.94
2022-07-27T04:45:47.238Z,1014.97
2022-07-27T04:46:47.190Z,1014.99
2022-07-27T04:47:47.210Z,1014.98
2022-07-27T04:48:49.108Z,1015.03
2022-07-27T04:49:47.195Z,1014.96
2022-07-27T04:50:47.214Z,1014.99
2022-07-27T04:51:47.206Z,1014.99
2022-07-27T04:52:47.197Z,1015.03
2022-07-27T04:53:54.020Z,1014.99
2022-07-27T04:54:47.204Z,1015.00
2022-07-27T04:55:47.210Z,1015.02
2022-07-27T04:56:47.218Z,1015.01
2022-07-27T04:57:47.216Z,1014.99
2022-07-27T04:58:47.206Z,1015.01
2022-07-27T04:59:47.214Z,1015.04
2022-07-27T05:00:47.283Z,1014.99
2022-07-27T05:01:47.277Z,1015.01
2022-07-27T05:02:47.216Z,1015.02
2022-07-27T05:03:47.335Z,1015.03
2022-07-27T05:04:47.222Z,1015.04
2022-07-27T05:05:49.959Z,1015.10
2022-07-27T05:06:47.224Z,1015.07
2022-07-27T05:07:47.213Z,1015.09
2022-07-27T05:08:47.227Z,1015.06
2022-07-27T05:09:47.229Z,1015.11
2022-07-27T05:10:47.217Z,1015.10
2022-07-27T05:11:51.067Z,1015.14
2022-07-27T05:12:47.235Z,1015.13
2022-07-27T05:13:47.229Z,1015.16
2022-07-27T05:14:47.234Z,1015.19
2022-07-27T05:15:55.205Z,1015.18
2022-07-27T05:16:47.279Z,1015.18
2022-07-27T05:17:47.235Z,1015.16
2022-07-27T05:18:47.239Z,1015.13
2022-07-27T05:19:47.245Z,1015.13
2022-07-27T05:20:47.265Z,1015.11
2022-07-27T05:21:47.232Z,1015.17
2022-07-27T05:22:47.231Z,1015.14
2022-07-27T05:23:47.243Z,1015.13
2022-07-27T05:24:47.243Z,1015.14
2022-07-27T05:25:47.243Z,1015.13
2022-07-27T05:26:47.247Z,1015.10
2022-07-27T05:27:54.307Z,1015.08
2022-07-27T05:28:47.244Z,1015.12
2022-07-27T05:29:47.257Z,1015.13
2022-07-27T05:30:47.242Z,1015.12
2022-07-27T05:31:47.269Z,1015.12
2022-07-27T05:32:47.246Z,1015.15
2022-07-27T05:33:49.306Z,1015.18
2022-07-27T05:34:47.251Z,1015.15
2022-07-27T05:35:47.258Z,1015.22
2022-07-27T05:36:47.260Z,1015.20
2022-07-27T05:37:47.261Z,1015.25
2022-07-27T05:38:47.252Z,1015.25
2022-07-27T05:39:47.252Z,1015.25
2022-07-27T05:40:47.254Z,1015.22
2022-07-27T05:41:47.266Z,1015.25
2022-07-27T05:42:47.272Z,1015.27
2022-07-27T05:43:47.267Z,1015.29
2022-07-27T05:44:47.257Z,1015.31
2022-07-27T05:45:47.383Z,1015.33
2022-07-27T05:46:47.274Z,1015.32
2022-07-27T05:47:47.304Z,1015.39
2022-07-27T05:48:47.367Z,1015.39
2022-07-27T05:49:47.268Z,1015.40
2022-07-27T05:50:47.277Z,1015.45
2022-07-27T05:51:47.275Z,1015.45
2022-07-27T05:52:47.275Z,1015.45
2022-07-27T05:53:47.280Z,1015.47
2022-07-27T05:54:47.285Z,1015.44
2022-07-27T05:55:58.366Z,1015.43
2022-07-27T05:56:47.283Z,1015.47
2022-07-27T05:57:47.294Z,1015.50
2022-07-27T05:58:47.286Z,1015.53
2022-07-27T05:59:47.295Z,1015.51
2022-07-27T06:00:47.358Z,1015.51
2022-07-27T06:01:47.289Z,1015.50
2022-07-27T06:02:47.286Z,1015.50
2022-07-27T06:03:47.371Z,1015.49
2022-07-27T06:04:47.293Z,1015.51
2022-07-27T06:05:47.291Z,1015.48
2022-07-27T06:06:47.305Z,1015.51
2022-07-27T06:07:49.692Z,1015.50
2022-07-27T06:08:47.312Z,1015.52
2022-07-27T06:09:47.305Z,1015.53
2022-07-27T06:10:47.307Z,1015.52
2022-07-27T06:11:47.317Z,1015.51
2022-07-27T06:12:47.311Z,1015.53
2022-07-27T06:13:47.314Z,1015.55
2022-07-27T06:14:50.900Z,1015.53
2022-07-27T06:15:47.319Z,1015.53
2022-07-27T06:16:47.397Z,1015.55
2022-07-27T06:17:47.319Z,1015.53
2022-07-27T06:18:47.319Z,1015.51
2022-07-27T06:19:47.317Z,1015.51
2022-07-27T06:20:47.324Z,1015.59
2022-07-27T06:21:53.129Z,1015.56
2022-07-27T06:22:47.325Z,1015.59
2022-07-27T06:23:47.333Z,1015.54
2022-07-27T06:24:47.325Z,1015.52
2022-07-27T06:25:47.341Z,1015.50
2022-07-27T06:26:47.330Z,1015.54
2022-07-27T06:27:47.339Z,1015.52
2022-07-27T06:28:47.347Z,1015.55
2022-07-27T06:29:47.351Z,1015.59
2022-07-27T06:30:47.350Z,1015.53
2022-07-27T06:31:47.448Z,1015.58
2022-07-27T06:32:47.347Z,1015.54
2022-07-27T06:33:50.379Z,1015.56
2022-07-27T06:34:47.353Z,1015.56
2022-07-27T06:35:47.345Z,1015.52
2022-07-27T06:36:47.350Z,1015.54
2022-07-27T06:37:47.364Z,1015.56
2022-07-27T06:38:47.359Z,1015.58
2022-07-27T06:39:47.362Z,1015.59
2022-07-27T06:40:47.365Z,1015.65
2022-07-27T06:41:47.371Z,1015.68
2022-07-27T06:42:47.381Z,1015.72
2022-07-27T06:43:47.376Z,1015.71
2022-07-27T06:44:47.391Z,1015.66
2022-07-27T06:45:47.390Z,1015.70
2022-07-27T06:46:47.445Z,1015.65
2022-07-27T06:47:49.609Z,1015.69
2022-07-27T06:48:47.429Z,1015.62
2022-07-27T06:49:47.377Z,1015.67
2022-07-27T06:50:47.381Z,1015.67
2022-07-27T06:51:47.384Z,1015.71
2022-07-27T06:52:47.411Z,1015.66
2022-07-27T06:53:47.384Z,1015.65
2022-07-27T06:54:47.391Z,1015.70
2022-07-27T06:55:47.395Z,1015.64
2022-07-27T06:56:47.396Z,1015.68
2022-07-27T06:57:47.399Z,1015.63
2022-07-27T06:58:47.404Z,1015.65
2022-07-27T06:59:47.392Z,1015.69
2022-07-27T07:00:47.580Z,1015.68
2022-07-27T07:01:48.944Z,1015.68
2022-07-27T07:02:47.403Z,1015.72
2022-07-27T07:03:47.480Z,1015.74
2022-07-27T07:04:47.417Z,1015.70
2022-07-27T07:05:47.413Z,1015.71
2022-07-27T07:06:47.422Z,1015.70
2022-07-27T07:07:47.417Z,1015.69
2022-07-27T07:08:47.425Z,1015.69
2022-07-27T07:09:47.427Z,1015.69
2022-07-27T07:10:47.429Z,1015.65
2022-07-27T07:11:47.421Z,1015.68
2022-07-27T07:12:47.427Z,1015.64
2022-07-27T07:13:47.432Z,1015.60
2022-07-27T07:14:47.430Z,1015.60
2022-07-27T07:15:47.489Z,1015.64
2022-07-27T07:16:47.464Z,1015.62
2022-07-27T07:17:47.436Z,1015.68
2022-07-27T07:18:52.021Z,1015.67
2022-07-27T07:19:47.439Z,1015.68
2022-07-27T07:20:47.444Z,1015.69
2022-07-27T07:21:47.437Z,1015.67
2022-07-27T07:22:47.445Z,1015.66
2022-07-27T07:23:47.445Z,1015.68
2022-07-27T07:24:47.462Z,1015.67
2022-07-27T07:25:47.453Z,1015.64
2022-07-27T07:26:47.455Z,1015.67
2022-07-27T07:27:47.460Z,1015.62
2022-07-27T07:28:47.463Z,1015.61
2022-07-27T07:29:47.470Z,1015.61
2022-07-27T07:30:47.467Z,1015.66
2022-07-27T07:31:47.579Z,1015.68
2022-07-27T07:32:47.475Z,1015.66
2022-07-27T07:33:47.475Z,1015.69
2022-07-27T07:34:47.463Z,1015.63
2022-07-27T07:36:13.883Z,1015.63
2022-07-27T07:36:47.478Z,1015.68
2022-07-27T07:37:49.755Z,1015.69
2022-07-27T07:38:47.482Z,1015.67
2022-07-27T07:39:47.486Z,1015.64
2022-07-27T07:40:47.487Z,1015.64
2022-07-27T07:41:47.489Z,1015.61
2022-07-27T07:42:47.504Z,1015.63
2022-07-27T07:43:47.492Z,1015.63
2022-07-27T07:44:47.494Z,1015.62
2022-07-27T07:45:51.355Z,1015.64
2022-07-27T07:46:47.655Z,1015.58
2022-07-27T07:47:47.496Z,1015.57
2022-07-27T07:48:47.580Z,1015.61
2022-07-27T07:49:47.521Z,1015.62
2022-07-27T07:50:51.838Z,1015.62
2022-07-27T07:51:47.506Z,1015.64
2022-07-27T07:52:47.516Z,1015.64
2022-07-27T07:53:47.531Z,1015.66
2022-07-27T07:54:47.517Z,1015.65
2022-07-27T07:55:47.523Z,1015.65
2022-07-27T07:56:47.514Z,1015.64
2022-07-27T07:57:47.518Z,1015.63
2022-07-27T07:58:47.524Z,1015.61
2022-07-27T07:59:47.521Z,1015.58
2022-07-27T08:00:47.537Z,1015.56
2022-07-27T08:01:47.586Z,1015.58
2022-07-27T08:02:47.619Z,1015.61
2022-07-27T08:03:51.042Z,1015.62
2022-07-27T08:04:47.548Z,1015.65
2022-07-27T08:05:47.563Z,1015.64
2022-07-27T08:06:47.561Z,1015.62
2022-07-27T08:07:47.551Z,1015.60
2022-07-27T08:08:47.559Z,1015.67
2022-07-27T08:09:47.552Z,1015.59
2022-07-27T08:10:47.904Z,1015.66
2022-07-27T08:11:47.565Z,1015.62
2022-07-27T08:12:47.568Z,1015.66
2022-07-27T08:13:47.579Z,1015.67
2022-07-27T08:14:47.564Z,1015.67
2022-07-27T08:15:47.592Z,1015.72
2022-07-27T08:16:49.038Z,1015.73
2022-07-27T08:17:47.582Z,1015.72
2022-07-27T08:18:47.582Z,1015.69
2022-07-27T08:19:47.573Z,1015.74
2022-07-27T08:20:47.587Z,1015.78
2022-07-27T08:21:47.592Z,1015.73
2022-07-27T08:22:47.585Z,1015.73
2022-07-27T08:23:47.623Z,1015.75
2022-07-27T08:24:47.591Z,1015.78
2022-07-27T08:25:47.603Z,1015.78
2022-07-27T08:26:47.609Z,1015.84
2022-07-27T08:27:47.680Z,1015.80
2022-07-27T08:28:47.606Z,1015.77
2022-07-27T08:29:47.603Z,1015.82
2022-07-27T08:30:47.615Z,1015.81
2022-07-27T08:31:52.914Z,1015.80
2022-07-27T08:32:47.625Z,1015.78
2022-07-27T08:33:47.621Z,1015.73
2022-07-27T08:34:47.624Z,1015.74
2022-07-27T08:35:47.636Z,1015.77
2022-07-27T08:36:47.639Z,1015.69
2022-07-27T08:37:47.644Z,1015.72
2022-07-27T08:38:47.637Z,1015.70
2022-07-27T08:40:48.201Z,1015.77
2022-07-27T08:41:47.646Z,1015.78
2022-07-27T08:42:47.642Z,1015.78
2022-07-27T08:43:47.658Z,1015.76
2022-07-27T08:44:47.653Z,1015.77
2022-07-27T08:45:47.661Z,1015.85
2022-07-27T08:46:47.724Z,1015.76
2022-07-27T08:47:47.664Z,1015.83
2022-07-27T08:48:47.687Z,1015.79
2022-07-27T08:49:49.682Z,1015.80
2022-07-27T08:50:47.676Z,1015.80
2022-07-27T08:51:47.671Z,1015.73
2022-07-27T08:52:47.674Z,1015.78
2022-07-27T08:53:53.105Z,1015.74
2022-07-27T08:54:47.693Z,1015.67
2022-07-27T08:55:47.697Z,1015.68
2022-07-27T08:56:47.695Z,1015.69
2022-07-27T08:57:47.703Z,1015.74
2022-07-27T08:58:47.702Z,1015.70
2022-07-27T08:59:47.690Z,1015.69
2022-07-27T09:00:47.706Z,1015.70
2022-07-27T09:01:47.808Z,1015.80
2022-07-27T09:02:47.758Z,1015.81
2022-07-27T09:03:47.865Z,1015.76
2022-07-27T09:04:47.730Z,1015.72
2022-07-27T09:05:47.717Z,1015.74
2022-07-27T09:06:53.205Z,1015.72
2022-07-27T09:07:47.721Z,1015.69
2022-07-27T09:08:53.144Z,1015.69
2022-07-27T09:09:47.727Z,1015.65
2022-07-27T09:10:47.729Z,1015.73
2022-07-27T09:11:47.737Z,1015.70
2022-07-27T09:12:47.739Z,1015.71
2022-07-27T09:13:47.741Z,1015.66
2022-07-27T09:14:52.885Z,1015.69
2022-07-27T09:16:15.861Z,1015.66
2022-07-27T09:17:46.100Z,1015.65
2022-07-27T09:17:49.427Z,1015.61
2022-07-27T09:18:47.776Z,1015.71
2022-07-27T09:19:47.744Z,1015.74
2022-07-27T09:20:47.757Z,1015.77
2022-07-27T09:21:47.757Z,1015.78
2022-07-27T09:22:47.757Z,1015.75
2022-07-27T09:23:48.366Z,1015.76
2022-07-27T09:24:48.099Z,1015.75
2022-07-27T09:26:02.858Z,1015.74
2022-07-27T09:26:47.776Z,1015.74
2022-07-27T09:27:47.774Z,1015.77
2022-07-27T09:28:47.777Z,1015.75
2022-07-27T09:29:47.772Z,1015.77
2022-07-27T09:30:47.813Z,1015.73
2022-07-27T09:31:47.899Z,1015.80
2022-07-27T09:32:52.512Z,1015.74
2022-07-27T09:33:47.796Z,1015.77
2022-07-27T09:34:47.789Z,1015.72
2022-07-27T09:35:47.803Z,1015.77
2022-07-27T09:36:47.797Z,1015.76
2022-07-27T09:37:47.797Z,1015.73
2022-07-27T09:38:53.522Z,1015.72
2022-07-27T09:39:47.798Z,1015.73
2022-07-27T09:40:48.617Z,1015.73
2022-07-27T09:41:47.813Z,1015.71
2022-07-27T09:44:53.411Z,1015.69
2022-07-27T09:45:51.342Z,1015.70
2022-07-27T09:46:47.901Z,1015.68
2022-07-27T09:47:47.822Z,1015.73
2022-07-27T09:48:47.918Z,1015.73
2022-07-27T09:49:47.828Z,1015.72
2022-07-27T09:51:01.362Z,1015.74
2022-07-27T09:52:03.571Z,1015.69
2022-07-27T09:52:47.834Z,1015.67
2022-07-27T09:53:47.844Z,1015.70
2022-07-27T09:54:47.836Z,1015.70
2022-07-27T09:55:47.861Z,1015.63
2022-07-27T09:56:47.862Z,1015.70
2022-07-27T09:57:47.867Z,1015.72
2022-07-27T09:58:47.853Z,1015.71
2022-07-27T09:59:47.861Z,1015.74
2022-07-27T10:00:47.861Z,1015.72
2022-07-27T10:01:54.095Z,1015.74
2022-07-27T10:02:47.861Z,1015.70
2022-07-27T10:03:47.868Z,1015.70
2022-07-27T10:04:47.915Z,1015.65
2022-07-27T10:05:47.874Z,1015.66
2022-07-27T10:07:02.283Z,1015.69
2022-07-27T10:07:47.877Z,1015.66
2022-07-27T10:08:47.885Z,1015.67
2022-07-27T10:09:47.929Z,1015.70
2022-07-27T10:10:47.896Z,1015.68
2022-07-27T10:11:47.886Z,1015.66
2022-07-27T10:12:53.672Z,1015.69
2022-07-27T10:13:47.879Z,1015.70
2022-07-27T10:14:47.886Z,1015.73
2022-07-27T10:15:47.953Z,1015.72
2022-07-27T10:16:47.893Z,1015.78
2022-07-27T10:17:47.891Z,1015.72
2022-07-27T10:18:50.858Z,1015.67
2022-07-27T10:19:47.906Z,1015.71
2022-07-27T10:20:47.945Z,1015.76
2022-07-27T10:21:47.909Z,1015.75
2022-07-27T10:22:47.919Z,1015.81
2022-07-27T10:23:47.912Z,1015.79
2022-07-27T10:24:53.032Z,1015.81
2022-07-27T10:25:47.914Z,1015.82
2022-07-27T10:26:47.935Z,1015.81
2022-07-27T10:27:47.912Z,1015.79
2022-07-27T10:28:47.920Z,1015.79
2022-07-27T10:29:47.926Z,1015.78
2022-07-27T10:30:53.839Z,1015.79
2022-07-27T10:31:47.916Z,1015.78
2022-07-27T10:32:47.935Z,1015.78
2022-07-27T10:33:47.927Z,1015.78
2022-07-27T10:34:47.938Z,1015.78
2022-07-27T10:35:47.934Z,1015.80
2022-07-27T10:36:47.933Z,1015.77
2022-07-27T10:37:47.935Z,1015.76
2022-07-27T10:38:47.939Z,1015.74
2022-07-27T10:39:47.947Z,1015.75
2022-07-27T10:40:47.944Z,1015.72
2022-07-27T10:41:47.957Z,1015.72
2022-07-27T10:42:53.582Z,1015.71
2022-07-27T10:43:47.946Z,1015.68
2022-07-27T10:44:47.956Z,1015.69
2022-07-27T10:45:53.923Z,1015.68
2022-07-27T10:46:47.977Z,1015.69
2022-07-27T10:47:47.964Z,1015.68
2022-07-27T10:48:49.210Z,1015.72
2022-07-27T10:49:47.967Z,1015.73
2022-07-27T10:50:47.984Z,1015.78
2022-07-27T10:51:47.969Z,1015.74
2022-07-27T10:52:47.966Z,1015.74
2022-07-27T10:54:17.948Z,1015.71
2022-07-27T10:54:52.671Z,1015.81
2022-07-27T10:55:47.973Z,1015.84
2022-07-27T10:56:47.987Z,1015.85
2022-07-27T10:57:47.977Z,1015.81
2022-07-27T10:58:47.997Z,1015.78
2022-07-27T11:00:53.611Z,1015.82
2022-07-27T11:01:48.104Z,1015.80
2022-07-27T11:02:47.986Z,1015.79
2022-07-27T11:03:47.999Z,1015.76
2022-07-27T11:04:48.056Z,1015.80
2022-07-27T11:06:30.633Z,1015.75
2022-07-27T11:07:22.477Z,1015.75
2022-07-27T11:08:13.452Z,1015.79
2022-07-27T11:09:01.739Z,1015.73
2022-07-27T11:10:04.937Z,1015.71
2022-07-27T11:10:48.015Z,1015.79
2022-07-27T11:11:48.008Z,1015.70
2022-07-27T11:12:48.016Z,1015.75
2022-07-27T11:13:48.019Z,1015.69
2022-07-27T11:14:48.025Z,1015.67
2022-07-27T11:15:48.016Z,1015.71
2022-07-27T11:16:55.249Z,1015.65
2022-07-27T11:17:57.545Z,1015.62
2022-07-27T11:18:53.037Z,1015.61
2022-07-27T11:19:48.025Z,1015.58
2022-07-27T11:20:48.036Z,1015.62
2022-07-27T11:21:48.027Z,1015.60
2022-07-27T11:23:49.545Z,1015.61
2022-07-27T11:23:51.419Z,1015.59
2022-07-27T11:24:48.033Z,1015.64
2022-07-27T11:25:48.045Z,1015.59
2022-07-27T11:26:48.044Z,1015.57
2022-07-27T11:27:48.039Z,1015.60
2022-07-27T11:28:48.054Z,1015.54
2022-07-27T11:29:48.047Z,1015.51
2022-07-27T11:30:48.104Z,1015.53
2022-07-27T11:31:57.316Z,1015.49
2022-07-27T11:32:48.055Z,1015.41
2022-07-27T11:33:48.057Z,1015.50
2022-07-27T11:34:48.052Z,1015.45
2022-07-27T11:35:48.053Z,1015.45
2022-07-27T11:36:48.068Z,1015.45
2022-07-27T11:37:48.060Z,1015.45
2022-07-27T11:38:48.066Z,1015.46
2022-07-27T11:40:00.311Z,1015.47
2022-07-27T11:40:57.112Z,1015.47
2022-07-27T11:42:08.715Z,1015.42
2022-07-27T11:42:48.146Z,1015.40
2022-07-27T11:43:48.105Z,1015.41
2022-07-27T11:44:48.085Z,1015.37
2022-07-27T11:45:48.182Z,1015.37
2022-07-27T11:46:48.093Z,1015.34
2022-07-27T11:47:48.094Z,1015.35
2022-07-27T11:49:05.510Z,1015.37
2022-07-27T11:49:48.173Z,1015.37
2022-07-27T11:50:48.091Z,1015.38
2022-07-27T11:51:48.105Z,1015.34
2022-07-27T11:52:48.088Z,1015.37
2022-07-27T11:53:48.103Z,1015.34
2022-07-27T11:54:48.101Z,1015.29
2022-07-27T11:55:48.103Z,1015.29
2022-07-27T11:56:48.094Z,1015.26
2022-07-27T11:57:48.113Z,1015.21
2022-07-27T11:58:48.106Z,1015.24
2022-07-27T11:59:48.108Z,1015.21
2022-07-27T12:00:48.106Z,1015.23
2022-07-27T12:01:48.113Z,1015.28
2022-07-27T12:02:48.179Z,1015.31
2022-07-27T12:03:48.117Z,1015.30
2022-07-27T12:04:48.164Z,1015.28
2022-07-27T12:05:48.124Z,1015.31
2022-07-27T12:06:48.115Z,1015.25
2022-07-27T12:07:48.128Z,1015.30
2022-07-27T12:08:48.120Z,1015.27
2022-07-27T12:09:48.131Z,1015.28